Time;durP1;ratioP1;P1;durP2;ratioP2;P2;SDS_P1;SDS_P2;PMS_P1;PMS_P2;Temp;Humidity;BMP_temperature;BMP_pressure;BME280_temperature;BME280_humidity;BME280_pressure;Samples;Min_cycle;Max_cycle;Signal;HPM_P1;HPM_P2
2021/05/12 00:01:20;;;;;;;12.63;7.17;;;;;;;11.64;70.89;97295.37;1424122;97;20965;-73
2021/05/12 00:03:46;;;;;;;13.10;7.03;;;;;;;11.68;70.30;97289.58;1424119;97;20909;-73
2021/05/12 00:06:12;;;;;;;14.10;7.80;;;;;;;11.62;70.16;97294.30;1424139;97;21989;-73
2021/05/12 00:08:37;;;;;;;17.30;8.93;;;;;;;11.56;72.65;97290.11;1424154;97;20873;-73
2021/05/12 00:11:03;;;;;;;9.85;6.75;;;;;;;11.55;72.13;97291.22;1424217;97;20924;-73
2021/05/12 00:13:29;;;;;;;12.18;6.83;;;;;;;11.52;70.65;97289.89;1424134;97;21004;-73
2021/05/12 00:15:55;;;;;;;13.20;7.97;;;;;;;11.48;70.18;97292.17;1424146;97;20873;-73
2021/05/12 00:18:23;;;;;;;13.13;7.50;;;;;;;11.30;71.91;97289.27;1424067;97;21353;-73
2021/05/12 00:20:49;;;;;;;14.00;7.22;;;;;;;11.16;73.40;97289.81;1424003;97;20952;-73
2021/05/12 00:23:23;;;;;;;10.82;7.28;;;;;;;11.13;73.53;97292.33;1424146;97;21032;-73
2021/05/12 00:25:46;;;;;;;10.23;7.25;;;;;;;11.10;71.52;97293.72;1423865;97;21033;-72
2021/05/12 00:28:12;;;;;;;10.90;7.25;;;;;;;11.11;71.59;97293.16;1424097;97;20933;-73
2021/05/12 00:30:38;;;;;;;12.80;7.33;;;;;;;11.06;74.00;97283.79;1424183;97;22011;-72
2021/05/12 00:33:04;;;;;;;15.08;8.28;;;;;;;11.06;73.56;97297.34;1423966;97;20862;-73
2021/05/12 00:35:30;;;;;;;10.28;6.87;;;;;;;11.04;73.54;97298.20;1424193;97;20929;-73
2021/05/12 00:37:56;;;;;;;11.08;7.37;;;;;;;10.99;75.33;97297.73;1424069;97;20885;-73
2021/05/12 00:40:22;;;;;;;12.33;7.35;;;;;;;11.01;73.20;97290.09;1424370;97;20912;-72
2021/05/12 00:42:48;;;;;;;12.28;7.35;;;;;;;10.93;72.06;97293.50;1426852;96;21985;-72
2021/05/12 00:45:20;;;;;;;14.90;9.25;;;;;;;10.93;71.62;97293.50;1428181;96;20991;-73
2021/05/12 00:47:48;;;;;;;14.75;9.25;;;;;;;10.94;73.58;97297.84;1428139;96;20889;-72
2021/05/12 00:50:16;;;;;;;13.88;9.43;;;;;;;10.91;73.95;97295.16;1428064;96;21004;-72
2021/05/12 00:52:42;;;;;;;11.60;7.03;;;;;;;10.86;75.42;97294.47;1428186;96;21024;-72
2021/05/12 00:55:08;;;;;;;14.23;8.35;;;;;;;10.86;73.37;97287.14;1417857;97;21112;-72
2021/05/12 00:57:35;;;;;;;11.35;7.20;;;;;;;10.81;74.26;97287.22;1428108;96;21004;-72
2021/05/12 01:00:06;;;;;;;9.35;6.67;;;;;;;10.78;73.88;97286.47;1417759;97;21839;-73
2021/05/12 01:02:33;;;;;;;11.88;7.30;;;;;;;10.77;72.47;97281.33;1427926;96;21012;-72
2021/05/12 01:05:06;;;;;;;10.88;6.92;;;;;;;10.67;74.44;97291.80;1417738;97;21076;-72
2021/05/12 01:07:32;;;;;;;8.93;7.30;;;;;;;10.67;75.13;97294.50;1428109;96;21182;-72
2021/05/12 01:09:58;;;;;;;11.85;7.65;;;;;;;10.65;74.49;97293.45;1417717;97;20976;-72
2021/05/12 01:12:23;;;;;;;14.65;7.78;;;;;;;10.63;75.13;97294.30;1428170;96;20985;-72
2021/05/12 01:14:49;;;;;;;9.18;7.12;;;;;;;10.53;75.03;97296.39;1428136;96;20913;-72
2021/05/12 01:17:15;;;;;;;11.48;7.25;;;;;;;10.50;73.74;97296.41;1428106;96;21008;-72
2021/05/12 01:19:42;;;;;;;11.12;7.62;;;;;;;10.43;75.23;97298.72;1417828;97;21966;-72
2021/05/12 01:22:10;;;;;;;12.07;7.78;;;;;;;10.36;76.08;97294.23;1428021;96;21072;-72
2021/05/12 01:24:36;;;;;;;11.65;6.83;;;;;;;10.32;75.10;97289.94;1428127;96;21027;-72
2021/05/12 01:27:02;;;;;;;13.65;7.70;;;;;;;10.31;75.37;97292.39;1432138;96;21373;-72
2021/05/12 01:29:28;;;;;;;15.10;6.25;;;;;;;10.24;76.96;97293.31;1428255;96;21028;-72
2021/05/12 01:31:54;;;;;;;12.00;6.42;;;;;;;10.23;76.47;97295.77;1428060;96;21382;-72
2021/05/12 01:34:20;;;;;;;13.20;7.70;;;;;;;10.24;74.57;97288.45;1428137;96;21039;-72
2021/05/12 01:36:47;;;;;;;12.30;7.33;;;;;;;10.22;74.36;97283.33;1417693;97;20956;-72
2021/05/12 01:39:13;;;;;;;16.35;7.05;;;;;;;10.17;74.68;97285.56;1428197;96;20995;-72
2021/05/12 01:41:39;;;;;;;13.00;8.60;;;;;;;10.15;74.46;97280.96;1428161;96;20957;-72
2021/05/12 01:44:09;;;;;;;11.75;6.80;;;;;;;10.11;75.45;97277.25;1429539;96;21314;-72
2021/05/12 01:46:33;;;;;;;10.93;6.20;;;;;;;10.08;74.53;97281.08;1429391;96;21186;-72
2021/05/12 01:49:01;;;;;;;13.40;6.50;;;;;;;10.02;76.07;97283.62;1429557;96;20905;-72
2021/05/12 01:51:27;;;;;;;17.67;7.17;;;;;;;9.99;73.77;97280.13;1429561;96;21056;-72
2021/05/12 01:53:53;;;;;;;8.48;6.05;;;;;;;10.02;74.92;97276.31;1426978;96;20889;-71
2021/05/12 01:56:19;;;;;;;9.40;5.45;;;;;;;10.09;74.20;97278.66;1429571;96;20991;-71
2021/05/12 01:58:45;;;;;;;9.40;6.40;;;;;;;10.05;73.70;97273.00;1415188;96;20865;-70
2021/05/12 02:01:10;;;;;;;9.40;5.78;;;;;;;9.99;77.48;97269.30;1429589;96;20968;-67
2021/05/12 02:03:36;;;;;;;9.70;6.42;;;;;;;10.00;74.73;97270.91;1429686;96;21475;-69
2021/05/12 02:06:03;;;;;;;11.48;7.85;;;;;;;9.96;75.22;97273.97;1429757;96;20909;-68
2021/05/12 02:08:29;;;;;;;12.45;7.20;;;;;;;9.94;74.05;97270.75;1422733;96;21079;-67
2021/05/12 02:11:01;;;;;;;16.02;7.92;;;;;;;9.93;74.50;97268.59;1429238;96;21054;-67
2021/05/12 02:21:26;;;;;;;13.83;6.97;;;;;;;9.93;76.47;97263.73;1428647;96;21111;-67
2021/05/12 02:23:52;;;;;;;16.42;7.15;;;;;;;9.75;75.58;97260.74;1427331;96;21153;-67
2021/05/12 02:26:18;;;;;;;11.95;6.53;;;;;;;9.70;75.24;97258.64;1429097;96;21385;-67
2021/05/12 02:28:44;;;;;;;10.05;6.62;;;;;;;9.61;74.48;97262.55;1429083;96;20913;-67
2021/05/12 02:31:10;;;;;;;11.03;5.80;;;;;;;9.58;74.77;97255.84;1429155;96;20924;-65
2021/05/12 02:33:36;;;;;;;9.70;5.42;;;;;;;9.55;74.26;97251.54;1429231;96;20944;-65
2021/05/12 02:36:02;;;;;;;10.18;5.55;;;;;;;9.45;74.32;97257.09;1429746;96;21671;-65
2021/05/12 02:38:28;;;;;;;10.15;6.65;;;;;;;9.39;74.66;97256.89;1429113;96;20988;-65
2021/05/12 02:40:54;;;;;;;9.38;5.50;;;;;;;9.36;78.53;97251.52;1429612;96;21038;-65
2021/05/12 02:43:20;;;;;;;15.45;7.15;;;;;;;9.46;78.01;97249.23;1428673;96;20901;-65
2021/05/12 02:45:46;;;;;;;13.35;7.12;;;;;;;9.53;77.24;97249.68;1428148;96;21329;-65
2021/05/12 02:48:11;;;;;;;13.58;7.72;;;;;;;9.53;77.75;97250.48;1427861;96;21767;-66
2021/05/12 02:50:40;;;;;;;11.35;7.33;;;;;;;9.48;76.55;97242.42;1428161;96;21019;-66
2021/05/12 02:53:07;;;;;;;12.13;8.28;;;;;;;9.51;76.59;97249.17;1426066;96;20996;-65
2021/05/12 02:55:35;;;;;;;12.05;6.80;;;;;;;9.49;75.08;97245.41;1428193;96;21371;-66
2021/05/12 02:58:05;;;;;;;16.65;6.85;;;;;;;9.46;75.92;97243.82;1428237;96;21012;-66
2021/05/12 03:00:29;;;;;;;14.28;7.25;;;;;;;9.48;75.74;97238.92;1428390;96;22404;-64
2021/05/12 03:02:56;;;;;;;12.93;5.67;;;;;;;9.45;78.34;97233.55;1428104;96;20924;-67
2021/05/12 03:05:22;;;;;;;12.78;6.75;;;;;;;9.56;76.79;97238.27;1428277;96;21369;-63
2021/05/12 03:07:48;;;;;;;12.73;6.50;;;;;;;9.50;76.03;97238.91;1415483;96;20854;-64
2021/05/12 03:10:17;;;;;;;19.90;6.83;;;;;;;9.44;75.21;97236.55;1428192;96;21071;-64
2021/05/12 03:12:43;;;;;;;12.40;6.78;;;;;;;9.33;75.83;97239.95;1428235;96;21377;-64
2021/05/12 03:15:13;;;;;;;14.30;6.75;;;;;;;9.27;77.75;97238.39;1428225;96;21385;-65
2021/05/12 03:17:39;;;;;;;8.43;5.67;;;;;;;9.32;76.63;97231.03;1428238;96;20988;-66
2021/05/12 03:20:07;;;;;;;11.18;6.90;;;;;;;9.34;77.17;97240.20;1428180;96;20928;-65
2021/05/12 03:22:33;;;;;;;10.58;5.67;;;;;;;9.38;78.88;97237.16;1428381;96;21322;-65
2021/05/12 03:24:59;;;;;;;14.23;5.15;;;;;;;9.50;77.06;97243.52;1428223;96;21219;-65
2021/05/12 03:27:25;;;;;;;9.80;5.65;;;;;;;9.45;76.55;97240.86;1428135;96;20901;-65
2021/05/12 03:29:51;;;;;;;10.70;6.35;;;;;;;9.44;77.82;97237.91;1428208;96;21027;-66
2021/05/12 03:32:17;;;;;;;9.53;6.28;;;;;;;9.44;77.99;97232.50;1428194;96;20964;-65
2021/05/12 03:34:42;;;;;;;12.63;6.08;;;;;;;9.43;77.12;97230.34;1428088;96;20964;-66
2021/05/12 03:37:08;;;;;;;14.45;6.67;;;;;;;9.42;77.14;97234.14;1427996;96;21694;-65
2021/05/12 03:39:34;;;;;;;11.63;6.35;;;;;;;9.38;76.86;97229.59;1428276;96;21407;-66
2021/05/12 03:42:00;;;;;;;11.60;8.08;;;;;;;9.37;77.26;97230.15;1428219;96;20913;-65
2021/05/12 03:44:26;;;;;;;11.45;6.85;;;;;;;9.36;78.05;97227.73;1432912;96;20986;-65
2021/05/12 03:46:52;;;;;;;11.10;6.75;;;;;;;9.40;76.87;97229.59;1433240;96;21459;-65
2021/05/12 03:49:18;;;;;;;19.00;9.65;;;;;;;9.47;75.97;97235.41;1433406;96;21729;-66
2021/05/12 03:51:44;;;;;;;16.97;9.23;;;;;;;9.50;76.37;97232.14;1433238;96;20978;-66
2021/05/12 03:54:10;;;;;;;15.48;8.40;;;;;;;9.56;77.90;97221.49;1433340;96;21022;-65
2021/05/12 03:56:36;;;;;;;18.82;8.30;;;;;;;9.69;77.16;97225.38;1433266;96;20962;-65
2021/05/12 03:59:02;;;;;;;9.75;6.50;;;;;;;9.76;76.67;97223.12;1413422;96;21061;-65
2021/05/12 04:01:28;;;;;;;13.45;9.03;;;;;;;9.83;75.62;97222.75;1433280;96;21543;-65
2021/05/12 04:03:54;;;;;;;12.25;8.58;;;;;;;9.80;76.51;97224.13;1433306;96;21006;-66
2021/05/12 04:06:20;;;;;;;16.02;8.90;;;;;;;9.89;76.37;97221.01;1433392;96;21007;-65
2021/05/12 04:08:46;;;;;;;14.68;10.18;;;;;;;10.02;75.62;97220.82;1433275;96;20966;-65
2021/05/12 04:11:12;;;;;;;15.40;9.68;;;;;;;10.07;75.76;97219.37;1433465;96;20943;-65
2021/05/12 04:13:38;;;;;;;22.25;11.12;;;;;;;10.16;75.58;97217.59;1433325;96;21696;-66
2021/05/12 04:16:04;;;;;;;15.72;9.73;;;;;;;10.30;74.83;97219.58;1433310;96;20946;-66
2021/05/12 04:18:30;;;;;;;17.75;9.90;;;;;;;10.39;75.32;97218.59;1433384;96;21043;-65
2021/05/12 04:20:56;;;;;;;12.90;9.03;;;;;;;10.45;75.19;97218.77;1433293;96;21006;-65
2021/05/12 04:23:22;;;;;;;12.05;7.70;;;;;;;10.54;74.85;97213.47;1433324;96;21439;-65
2021/05/12 04:25:49;;;;;;;15.55;8.38;;;;;;;10.67;74.72;97211.31;1433333;96;21200;-65
2021/05/12 04:28:14;;;;;;;9.95;7.65;;;;;;;10.84;74.25;97209.92;1433276;96;21423;-65
2021/05/12 04:30:40;;;;;;;14.65;7.22;;;;;;;11.01;74.02;97214.19;1433380;96;20943;-66
2021/05/12 04:33:06;;;;;;;12.68;6.35;;;;;;;11.19;73.32;97209.76;1433236;96;20986;-66
2021/05/12 04:35:32;;;;;;;13.60;7.72;;;;;;;11.30;73.29;97207.91;1433438;96;20934;-65
2021/05/12 04:37:58;;;;;;;14.00;7.30;;;;;;;11.46;72.96;97207.59;1433312;96;21487;-66
2021/05/12 04:40:25;;;;;;;12.47;7.30;;;;;;;11.66;72.71;97202.25;1433388;96;20943;-66
2021/05/12 04:42:50;;;;;;;13.83;7.55;;;;;;;11.83;72.10;97202.42;1433160;96;20987;-65
2021/05/12 04:45:18;;;;;;;13.03;6.45;;;;;;;12.00;71.69;97197.69;1433388;96;21309;-66
2021/05/12 04:47:54;;;;;;;11.33;5.58;;;;;;;12.10;71.12;97196.87;1433230;96;20911;-65
2021/05/12 04:50:13;;;;;;;10.00;6.75;;;;;;;12.26;70.68;97192.42;1432266;96;21297;-66
2021/05/12 04:52:39;;;;;;;13.65;6.90;;;;;;;12.39;70.72;97189.64;1433387;96;21006;-66
2021/05/12 04:55:07;;;;;;;14.38;7.28;;;;;;;12.56;70.31;97188.93;1433274;96;21033;-66
2021/05/12 04:57:33;;;;;;;10.83;6.27;;;;;;;12.75;69.91;97181.89;1433437;96;21130;-66
2021/05/12 04:59:59;;;;;;;9.40;5.85;;;;;;;12.92;69.06;97187.40;1433395;96;20938;-67
2021/05/12 05:02:25;;;;;;;7.92;5.10;;;;;;;13.01;69.08;97183.91;1433216;96;21625;-66
2021/05/12 05:04:53;;;;;;;9.75;5.75;;;;;;;13.15;69.10;97182.64;1433311;96;20942;-67
2021/05/12 05:07:19;;;;;;;8.40;4.87;;;;;;;13.34;68.97;97180.27;1433328;96;21034;-66
2021/05/12 05:09:44;;;;;;;13.83;7.05;;;;;;;13.58;68.53;97181.15;1433489;96;21002;-66
2021/05/12 05:12:11;;;;;;;8.58;5.83;;;;;;;13.75;67.96;97181.95;1433287;96;20935;-66
2021/05/12 05:14:37;;;;;;;11.78;6.03;;;;;;;13.95;67.76;97180.53;1433325;96;22224;-66
2021/05/12 05:17:03;;;;;;;13.10;7.08;;;;;;;14.14;67.21;97174.73;1433278;96;20931;-67
2021/05/12 05:19:29;;;;;;;9.28;6.65;;;;;;;14.29;66.18;97174.80;1433230;96;21022;-66
2021/05/12 05:21:56;;;;;;;13.65;7.00;;;;;;;14.49;66.10;97172.77;1433259;96;20958;-66
2021/05/12 05:24:22;;;;;;;17.52;8.53;;;;;;;14.74;64.81;97175.73;1433270;96;20962;-66
2021/05/12 05:26:48;;;;;;;11.40;7.78;;;;;;;14.91;63.47;97174.30;1433312;96;21954;-66
2021/05/12 05:29:14;;;;;;;20.97;9.23;;;;;;;15.04;62.40;97176.55;1433420;96;20891;-66
2021/05/12 05:31:40;;;;;;;10.45;7.62;;;;;;;15.17;61.99;97173.59;1433259;96;20994;-66
2021/05/12 05:34:06;;;;;;;18.05;9.10;;;;;;;15.35;60.91;97172.92;1433286;96;21383;-66
2021/05/12 05:36:32;;;;;;;12.05;8.43;;;;;;;15.49;61.20;97169.39;1433410;96;21038;-66
2021/05/12 05:38:57;;;;;;;13.43;8.28;;;;;;;15.69;60.22;97167.02;1433237;96;21721;-66
2021/05/12 05:41:23;;;;;;;13.58;8.05;;;;;;;15.83;59.64;97170.86;1433260;96;20978;-66
2021/05/12 05:43:49;;;;;;;14.87;7.85;;;;;;;15.99;58.83;97169.12;1422044;96;20936;-66
2021/05/12 05:46:15;;;;;;;10.18;7.53;;;;;;;16.11;58.15;97155.48;1409437;98;20893;-66
2021/05/12 05:48:41;;;;;;;11.22;7.35;;;;;;;16.24;57.52;97154.41;1409403;98;21060;-66
2021/05/12 05:51:07;;;;;;;9.15;7.17;;;;;;;16.33;57.72;97148.28;1409386;98;21705;-67
2021/05/12 05:53:33;;;;;;;20.23;8.05;;;;;;;16.49;57.46;97151.17;1409438;98;21009;-66
2021/05/12 05:55:59;;;;;;;9.13;6.67;;;;;;;16.71;57.20;97151.91;1409407;98;20996;-66
2021/05/12 05:58:25;;;;;;;15.38;6.80;;;;;;;16.88;56.27;97145.64;1409426;98;20955;-66
2021/05/12 06:00:51;;;;;;;15.38;7.10;;;;;;;17.04;55.87;97149.87;1409571;98;20997;-67
2021/05/12 06:03:17;;;;;;;16.17;6.60;;;;;;;17.19;55.62;97138.23;1409358;98;21660;-67
2021/05/12 06:05:47;;;;;;;12.13;5.85;;;;;;;17.39;54.95;97143.33;1409402;98;21460;-66
2021/05/12 06:08:13;;;;;;;9.28;5.45;;;;;;;17.59;54.64;97140.77;1409422;98;21016;-65
2021/05/12 06:10:39;;;;;;;11.05;5.87;;;;;;;17.73;53.69;97139.28;1409483;98;21004;-65
2021/05/12 06:13:05;;;;;;;11.38;6.00;;;;;;;17.87;54.08;97140.28;1409423;98;20913;-65
2021/05/12 06:15:31;;;;;;;7.97;6.67;;;;;;;18.06;53.11;97141.58;1409475;98;21530;-67
2021/05/12 06:17:56;;;;;;;16.17;7.97;;;;;;;18.19;53.18;97140.36;1409324;98;20936;-66
2021/05/12 06:20:22;;;;;;;10.32;6.37;;;;;;;18.44;52.40;97137.70;1409451;98;20935;-66
2021/05/12 06:22:48;;;;;;;8.88;6.03;;;;;;;18.56;51.21;97130.78;1409388;98;20863;-66
2021/05/12 06:25:14;;;;;;;6.42;5.50;;;;;;;18.72;51.70;97133.58;1409450;98;20928;-66
2021/05/12 06:27:41;;;;;;;9.85;5.55;;;;;;;18.96;52.37;97127.08;1409518;98;21569;-66
2021/05/12 06:30:09;;;;;;;13.32;6.12;;;;;;;19.21;51.43;97130.41;1409394;98;21484;-66
2021/05/12 06:32:35;;;;;;;11.80;5.55;;;;;;;19.40;50.27;97127.73;1409366;98;21365;-66
2021/05/12 06:35:01;;;;;;;10.40;5.30;;;;;;;19.55;49.79;97126.07;1409472;98;21049;-66
2021/05/12 06:37:29;;;;;;;13.00;5.62;;;;;;;19.73;49.30;97122.35;1409481;98;20944;-66
2021/05/12 06:39:55;;;;;;;14.20;5.80;;;;;;;19.85;48.64;97121.44;1409549;98;21197;-66
2021/05/12 06:42:21;;;;;;;8.18;5.12;;;;;;;19.99;48.86;97119.75;1409292;98;21028;-66
2021/05/12 06:44:47;;;;;;;27.37;6.05;;;;;;;20.19;48.85;97106.80;1420113;97;21027;-66
2021/05/12 06:47:13;;;;;;;7.80;4.65;;;;;;;20.46;48.98;97106.91;1424104;97;21417;-66
2021/05/12 06:49:39;;;;;;;6.12;4.47;;;;;;;20.75;48.41;97104.05;1424133;97;21032;-66
2021/05/12 06:52:05;;;;;;;8.88;3.90;;;;;;;20.97;47.46;97101.08;1424131;97;21677;-66
2021/05/12 06:54:31;;;;;;;7.40;4.20;;;;;;;21.12;46.81;97102.31;1424071;97;20862;-66
2021/05/12 06:56:57;;;;;;;6.45;4.17;;;;;;;21.36;46.89;97087.89;1424120;97;21028;-66
2021/05/12 06:59:23;;;;;;;7.08;4.10;;;;;;;21.78;45.22;97090.42;1424221;97;20901;-66
2021/05/12 07:01:49;;;;;;;5.60;4.17;;;;;;;22.13;44.60;97089.27;1424234;97;20905;-66
2021/05/12 07:04:15;;;;;;;5.55;4.25;;;;;;;22.33;44.15;97089.89;1424108;97;21689;-66
2021/05/12 07:06:41;;;;;;;8.60;3.75;;;;;;;22.50;45.21;97081.78;1424149;97;20933;-66
2021/05/12 07:09:07;;;;;;;7.95;4.00;;;;;;;22.76;43.86;97082.20;1424204;97;21298;-66
2021/05/12 07:11:33;;;;;;;8.33;4.17;;;;;;;22.86;43.75;97080.73;1424331;97;20917;-67
2021/05/12 07:13:59;;;;;;;8.15;3.85;;;;;;;22.97;44.47;97076.07;1424134;97;20897;-66
2021/05/12 07:16:24;;;;;;;8.55;3.70;;;;;;;23.26;43.42;97080.42;1424178;97;21945;-66
2021/05/12 07:18:50;;;;;;;5.67;3.55;;;;;;;23.85;42.31;97073.64;1424137;97;20912;-66
2021/05/12 07:21:16;;;;;;;5.33;3.65;;;;;;;24.45;40.88;97069.48;1424114;97;20948;-66
2021/05/12 07:23:44;;;;;;;6.53;3.75;;;;;;;25.05;39.24;97061.80;1424041;97;21286;-66
2021/05/12 07:26:13;;;;;;;18.48;4.25;;;;;;;25.64;39.65;97065.39;1424146;97;20972;-66
2021/05/12 07:28:39;;;;;;;7.08;3.80;;;;;;;26.36;39.16;97056.35;1424267;97;21236;-66
2021/05/12 07:31:05;;;;;;;7.53;3.85;;;;;;;26.98;37.76;97060.27;1424063;97;21489;-66
2021/05/12 07:33:31;;;;;;;5.67;3.02;;;;;;;27.46;36.54;97060.22;1424195;97;20974;-66
2021/05/12 07:35:57;;;;;;;4.87;3.30;;;;;;;27.89;35.50;97053.39;1424088;97;21071;-67
2021/05/12 07:38:23;;;;;;;7.35;4.12;;;;;;;28.41;33.11;97048.31;1424132;97;21362;-66
2021/05/12 07:40:49;;;;;;;4.60;3.55;;;;;;;28.89;33.31;97054.14;1424163;97;22155;-66
2021/05/12 07:43:15;;;;;;;7.58;2.70;;;;;;;29.20;32.14;97044.43;1424080;97;20952;-66
2021/05/12 07:45:41;;;;;;;7.97;3.87;;;;;;;29.54;31.04;97048.22;1427919;96;20932;-66
2021/05/12 07:48:10;;;;;;;3.58;2.50;;;;;;;30.01;31.02;97039.09;1428205;96;20941;-66
2021/05/12 07:50:36;;;;;;;7.12;3.02;;;;;;;29.94;29.24;97040.02;1428240;96;21381;-66
2021/05/12 07:53:03;;;;;;;8.95;3.17;;;;;;;30.42;29.23;97034.99;1428145;96;21213;-66
2021/05/12 07:55:30;;;;;;;7.53;2.95;;;;;;;30.76;27.63;97036.00;1428251;96;20996;-66
2021/05/12 07:57:56;;;;;;;14.13;3.00;;;;;;;31.15;28.20;97037.20;1428201;96;21008;-66
2021/05/12 08:00:22;;;;;;;7.25;2.52;;;;;;;31.65;27.26;97030.27;1428175;96;21354;-66
2021/05/12 08:02:48;;;;;;;5.60;2.10;;;;;;;32.03;26.74;97032.39;1406511;97;21092;-66
2021/05/12 08:05:14;;;;;;;5.35;2.52;;;;;;;32.02;24.63;97023.83;1428245;96;21818;-66
2021/05/12 08:07:41;;;;;;;5.58;2.50;;;;;;;31.97;24.21;97029.37;1428176;96;21381;-66
2021/05/12 08:10:08;;;;;;;10.50;2.60;;;;;;;31.80;24.32;97018.09;1428263;96;20853;-66
2021/05/12 08:12:34;;;;;;;6.92;2.42;;;;;;;32.37;24.75;97020.57;1428256;96;21417;-66
2021/05/12 08:15:01;;;;;;;4.83;2.27;;;;;;;32.89;24.90;97014.31;1428238;96;21032;-66
2021/05/12 08:17:26;;;;;;;4.47;2.67;;;;;;;33.52;20.56;97009.15;1428190;96;21370;-66
2021/05/12 08:19:53;;;;;;;6.92;2.62;;;;;;;33.37;22.94;97009.66;1428104;96;20901;-66
2021/05/12 08:22:19;;;;;;;8.35;2.50;;;;;;;33.77;23.07;97001.21;1428363;96;20992;-66
2021/05/12 08:24:45;;;;;;;4.90;2.00;;;;;;;34.22;22.36;96997.26;1428122;96;20957;-66
2021/05/12 08:27:11;;;;;;;5.45;2.67;;;;;;;34.80;20.37;96994.98;1428212;96;21027;-66
2021/05/12 08:29:39;;;;;;;4.92;2.35;;;;;;;34.83;21.88;96994.82;1428299;96;21560;-66
2021/05/12 08:32:05;;;;;;;;;;;;;;;34.42;18.97;96985.64;1430153;96;20965;-66
2021/05/12 08:34:32;;;;;;;6.35;2.30;;;;;;;34.33;19.22;96984.17;1428366;96;20443;-66
2021/05/12 08:36:58;;;;;;;4.05;2.45;;;;;;;34.15;20.02;96986.30;1428132;96;21011;-66
2021/05/12 08:39:24;;;;;;;6.72;2.25;;;;;;;34.27;20.23;96987.45;1428231;96;20937;-66
2021/05/12 08:41:50;;;;;;;5.12;2.70;;;;;;;34.00;20.36;96979.66;1428209;96;21816;-66
2021/05/12 08:44:17;;;;;;;5.92;2.33;;;;;;;33.91;21.14;96981.02;1426970;96;20961;-66
2021/05/12 08:46:44;;;;;;;6.45;2.67;;;;;;;33.55;20.99;96981.55;1424077;97;20978;-66
2021/05/12 08:49:10;;;;;;;7.10;2.08;;;;;;;34.19;21.08;96971.49;1424355;97;21024;-66
2021/05/12 08:51:39;;;;;;;4.45;1.98;;;;;;;34.74;20.26;96973.70;1424062;97;21111;-66
2021/05/12 08:54:06;;;;;;;5.65;2.40;;;;;;;35.05;20.80;96969.41;1424031;97;21601;-67
2021/05/12 08:56:32;;;;;;;9.25;4.95;;;;;;;35.93;20.61;96968.10;1415908;97;21010;-67
2021/05/12 08:58:59;;;;;;;8.90;7.62;;;;;;;36.60;20.37;96966.91;1424065;97;21063;-67
2021/05/12 09:01:25;;;;;;;6.20;2.95;;;;;;;37.13;19.80;96958.41;1424145;97;21000;-67
2021/05/12 09:03:55;;;;;;;15.47;5.17;;;;;;;36.99;18.74;96961.33;1424254;97;21362;-67
2021/05/12 09:06:21;;;;;;;4.08;2.27;;;;;;;37.41;18.94;96964.00;1415614;97;21610;-67
2021/05/12 09:08:48;;;;;;;3.98;2.98;;;;;;;37.04;17.97;96956.45;1424064;97;21004;-67
2021/05/12 09:11:15;;;;;;;6.55;2.22;;;;;;;38.39;18.06;96952.62;1424125;97;28352;-67
2021/05/12 09:13:46;;;;;;;3.90;1.90;;;;;;;38.38;16.22;96951.84;1424208;97;21016;-67
2021/05/12 09:16:31;;;;;;;2.65;1.85;;;;;;;38.12;16.20;96950.11;1415863;97;21056;-66
2021/05/12 09:19:08;;;;;;;5.25;1.92;;;;;;;37.84;15.24;96949.00;1424356;97;21221;-67
2021/05/12 09:21:57;;;;;;;2.77;1.50;;;;;;;38.52;14.46;96938.91;1424078;97;21059;-67
2021/05/12 09:24:32;;;;;;;3.72;1.42;;;;;;;38.98;12.94;96938.91;1424132;97;20922;-67
2021/05/12 09:27:05;;;;;;;5.72;1.70;;;;;;;38.36;13.51;96928.90;1424100;97;21043;-67
2021/05/12 09:29:40;;;;;;;2.00;1.60;;;;;;;38.51;13.49;96930.91;1424057;97;21032;-67
2021/05/12 09:32:13;;;;;;;5.72;1.32;;;;;;;39.64;12.44;96930.39;1424114;97;21125;-67
2021/05/12 09:35:01;;;;;;;4.42;1.50;;;;;;;38.34;12.22;96931.45;1424070;97;21024;-66
2021/05/12 09:37:40;;;;;;;4.45;1.70;;;;;;;38.90;11.54;96932.25;1424154;97;21296;-67
2021/05/12 09:40:11;;;;;;;2.50;1.50;;;;;;;37.53;13.09;96934.70;1423960;97;21299;-67
2021/05/12 09:42:39;;;;;;;3.42;1.60;;;;;;;37.43;12.11;96939.50;1424152;97;20977;-67
2021/05/12 09:45:18;;;;;;;4.25;1.47;;;;;;;37.79;12.17;96934.94;1427955;96;21962;-67
2021/05/12 09:47:46;;;;;;;1.62;1.00;;;;;;;38.54;12.47;96929.30;1433249;96;20994;-67
2021/05/12 09:50:25;;;;;;;3.02;1.65;;;;;;;37.68;12.95;96927.63;1433233;96;21034;-67
2021/05/12 09:52:57;;;;;;;9.00;3.45;;;;;;;37.83;13.01;96925.61;1432829;96;21088;-67
2021/05/12 09:55:50;;;;;;;4.47;2.05;;;;;;;38.81;12.34;96929.56;1433322;96;20960;-67
2021/05/12 09:58:17;;;;;;;2.60;1.40;;;;;;;37.90;12.56;96932.92;1432758;96;21483;-67
2021/05/12 10:00:47;;;;;;;2.67;1.50;;;;;;;38.11;12.04;96923.86;1433337;96;21430;-66
2021/05/12 10:03:13;;;;;;;1.90;1.20;;;;;;;38.61;11.78;96926.03;1433356;96;21450;-68
2021/05/12 10:06:02;;;;;;;5.47;2.00;;;;;;;39.48;11.46;96916.80;1433415;96;21093;-67
2021/05/12 10:08:33;;;;;;;2.52;1.42;;;;;;;39.86;11.37;96919.90;1433219;96;21053;-67
2021/05/12 10:11:08;;;;;;;2.17;1.42;;;;;;;38.47;11.31;96920.45;1433337;96;21935;-66
2021/05/12 10:13:37;;;;;;;2.05;1.27;;;;;;;39.79;10.27;96917.52;1433182;96;20994;-67
2021/05/12 10:16:06;;;;;;;2.22;1.65;;;;;;;39.65;11.10;96911.33;1433216;96;21030;-66
2021/05/12 10:18:33;;;;;;;6.83;1.32;;;;;;;39.80;11.16;96916.23;1433218;96;21066;-66
2021/05/12 10:21:00;;;;;;;3.05;1.55;;;;;;;36.26;12.42;96920.84;1433400;96;20990;-66
2021/05/12 10:23:26;;;;;;;6.95;1.65;;;;;;;38.94;11.38;96912.98;1433344;96;21693;-66
2021/05/12 10:25:52;;;;;;;3.87;1.40;;;;;;;39.18;11.63;96909.95;1433357;96;21514;-66
2021/05/12 10:28:18;;;;;;;3.27;1.27;;;;;;;39.21;11.44;96911.77;1433326;96;20907;-66
2021/05/12 10:30:49;;;;;;;2.40;1.62;;;;;;;40.06;10.86;96899.20;1433598;96;21017;-66
2021/05/12 10:33:16;;;;;;;3.70;1.27;;;;;;;38.05;11.72;96901.17;1433349;96;21006;-67
2021/05/12 10:35:43;;;;;;;1.77;1.42;;;;;;;39.48;11.26;96902.64;1433427;96;21667;-67
2021/05/12 10:38:31;;;;;;;5.37;2.00;;;;;;;40.07;11.03;96892.88;1433381;96;21403;-64
2021/05/12 10:40:57;;;;;;;4.00;1.80;;;;;;;38.25;12.23;96899.69;1432744;96;21033;-67
2021/05/12 10:43:30;;;;;;;7.75;2.42;;;;;;;37.24;12.44;96902.93;1413741;96;21463;-67
2021/05/12 10:46:05;;;;;;;4.25;1.60;;;;;;;37.61;12.39;96895.55;1427334;96;21028;-65
2021/05/12 10:48:47;;;;;;;3.40;1.72;;;;;;;39.14;11.70;96892.41;1424189;97;21705;-67
2021/05/12 10:51:31;;;;;;;3.52;1.62;;;;;;;40.48;11.02;96880.02;1424044;97;21315;-66
2021/05/12 10:54:02;;;;;;;2.60;1.20;;;;;;;41.42;10.73;96882.32;1424235;97;21358;-67
2021/05/12 10:56:42;;;;;;;1.95;1.37;;;;;;;42.29;9.45;96880.53;1424188;97;21254;-67
2021/05/12 10:59:12;;;;;;;4.55;1.40;;;;;;;39.93;10.71;96881.81;1424138;97;21089;-67
2021/05/12 11:01:48;;;;;;;3.25;1.67;;;;;;;39.44;11.89;96879.43;1423650;97;21323;-67
2021/05/12 11:04:16;;;;;;;6.30;2.42;;;;;;;42.02;9.78;96869.30;1424317;97;20925;-67
2021/05/12 11:06:51;;;;;;;2.08;1.40;;;;;;;41.73;10.09;96869.98;1424228;97;20973;-67
2021/05/12 11:09:18;;;;;;;3.85;1.82;;;;;;;41.33;9.88;96871.98;1424313;97;21358;-67
2021/05/12 11:11:54;;;;;;;3.67;1.80;;;;;;;40.11;10.52;96866.50;1424170;97;20939;-67
2021/05/12 11:14:36;;;;;;;4.17;1.70;;;;;;;38.74;12.34;96871.19;1424131;97;21213;-67
2021/05/12 11:17:06;;;;;;;6.03;1.75;;;;;;;40.26;10.60;96865.70;1424065;97;21000;-66
2021/05/12 11:19:46;;;;;;;5.17;1.67;;;;;;;40.08;10.88;96858.98;1424195;97;20980;-67
2021/05/12 11:22:42;;;;;;;7.28;1.37;;;;;;;39.28;11.67;96860.22;1424129;97;21008;-66
2021/05/12 11:25:23;;;;;;;5.00;1.95;;;;;;;38.71;11.70;96850.30;1417641;97;21358;-66
2021/05/12 11:33:28;;;;;;;5.83;1.50;;;;;;;40.85;10.83;96845.87;1424176;97;21410;-66
2021/05/12 11:36:09;;;;;;;4.85;1.75;;;;;;;40.72;11.04;96841.30;1424181;97;20930;-67
2021/05/12 11:38:26;;;;;;;4.35;1.52;;;;;;;39.28;11.51;96844.63;1420373;96;21287;-67
2021/05/12 11:41:09;;;;;;;2.47;1.63;;;;;;;38.77;11.47;96835.58;1424456;97;21353;-67
2021/05/12 11:43:52;;;;;;;3.02;1.50;;;;;;;38.35;12.38;96837.47;1415723;97;21002;-66
2021/05/12 11:46:25;;;;;;;4.28;1.52;;;;;;;39.71;11.51;96834.22;1426579;96;21461;-66
2021/05/12 11:48:55;;;;;;;8.10;1.85;;;;;;;39.49;11.46;96823.47;1428239;96;21008;-67